Time;durP1;ratioP1;P1;durP2;ratioP2;P2;SDS_P1;SDS_P2;PMS_P1;PMS_P2;Temp;Humidity;BMP_temperature;BMP_pressure;BME280_temperature;BME280_humidity;BME280_pressure;Samples;Min_cycle;Max_cycle;Signal;HPM_P1;HPM_P2
2023/06/23 00:00:37;;;;;;;6.10;5.60;;;25.50;99.90;;;;;;5062531;28;20637;-58
2023/06/23 00:03:04;;;;;;;6.43;5.93;;;25.50;99.90;;;;;;5063150;28;20856;-59
2023/06/23 00:05:31;;;;;;;5.87;5.27;;;25.50;99.90;;;;;;5064273;28;20950;-57
2023/06/23 00:07:58;;;;;;;6.13;5.63;;;25.50;99.90;;;;;;5066376;28;20799;-58
2023/06/23 00:10:24;;;;;;;5.20;4.80;;;25.50;99.90;;;;;;5065817;28;21546;-59
2023/06/23 00:12:52;;;;;;;5.10;4.70;;;25.50;99.90;;;;;;5066850;28;20954;-59
2023/06/23 00:15:19;;;;;;;5.67;5.20;;;25.50;99.90;;;;;;5059702;28;20456;-58
2023/06/23 00:17:48;;;;;;;5.63;5.13;;;25.50;99.90;;;;;;5060616;28;20489;-59
2023/06/23 00:20:15;;;;;;;5.23;4.83;;;25.50;99.90;;;;;;5058703;28;20456;-57
2023/06/23 00:22:43;;;;;;;5.20;4.80;;;25.40;99.90;;;;;;5061634;28;20469;-59
2023/06/23 00:25:11;;;;;;;6.00;5.37;;;25.40;99.90;;;;;;5061513;28;20487;-59
2023/06/23 00:27:38;;;;;;;5.10;4.70;;;25.50;99.90;;;;;;5060690;28;20468;-59
2023/06/23 00:30:07;;;;;;;4.93;4.53;;;25.40;99.90;;;;;;5061009;28;20830;-58
2023/06/23 00:32:34;;;;;;;4.10;3.80;;;25.40;99.90;;;;;;5062041;28;20535;-56
2023/06/23 00:35:01;;;;;;;4.97;4.57;;;25.40;99.90;;;;;;5057098;28;20468;-58
2023/06/23 00:37:30;;;;;;;5.77;5.27;;;25.40;99.90;;;;;;5049512;28;20942;-59
2023/06/23 00:39:57;;;;;;;5.07;4.67;;;25.40;99.90;;;;;;5052636;28;21113;-58
2023/06/23 00:42:24;;;;;;;5.00;4.60;;;25.40;99.90;;;;;;5051220;28;20464;-59
2023/06/23 00:44:50;;;;;;;5.93;5.43;;;25.40;99.90;;;;;;5053133;28;20463;-59
2023/06/23 00:47:18;;;;;;;4.73;4.33;;;25.40;99.90;;;;;;5054307;28;21310;-59
2023/06/23 00:49:46;;;;;;;5.43;4.97;;;25.40;99.90;;;;;;5049868;28;20468;-59
2023/06/23 00:52:13;;;;;;;5.60;5.10;;;25.40;99.90;;;;;;5057788;28;20460;-59
2023/06/23 00:54:40;;;;;;;5.00;4.60;;;25.40;99.90;;;;;;5063810;28;20821;-58
2023/06/23 00:57:06;;;;;;;4.90;4.60;;;25.40;99.90;;;;;;5058318;28;20476;-60
2023/06/23 00:59:33;;;;;;;4.60;4.30;;;25.40;99.90;;;;;;5053279;28;20968;-59
2023/06/23 01:02:02;;;;;;;4.20;3.90;;;25.40;99.90;;;;;;5053235;28;20887;-58
2023/06/23 01:04:33;;;;;;;5.20;4.70;;;25.40;99.90;;;;;;5059104;28;20457;-57
2023/06/23 01:07:12;;;;;;;4.87;4.47;;;25.40;99.90;;;;;;5063059;28;20462;-57
2023/06/23 01:09:46;;;;;;;4.70;4.30;;;25.40;99.90;;;;;;5062816;28;20466;-58
2023/06/23 01:12:17;;;;;;;4.73;4.33;;;25.40;99.90;;;;;;5056725;28;20464;-59
2023/06/23 01:14:51;;;;;;;5.07;4.67;;;25.40;99.90;;;;;;5063251;28;20460;-59
2023/06/23 01:17:25;;;;;;;4.67;4.37;;;25.40;99.90;;;;;;5060365;28;20935;-59
2023/06/23 01:20:11;;;;;;;4.40;4.00;;;25.40;99.90;;;;;;5059242;28;20448;-59
2023/06/23 01:22:46;;;;;;;5.10;4.60;;;25.40;99.90;;;;;;5058504;28;20531;-58
2023/06/23 01:25:22;;;;;;;4.47;4.07;;;25.30;99.90;;;;;;5060566;28;21445;-59
2023/06/23 01:28:20;;;;;;;4.40;4.10;;;25.30;99.90;;;;;;5064227;28;20987;-59
2023/06/23 01:30:53;;;;;;;4.17;3.87;;;25.40;99.90;;;;;;5064777;28;20448;-58
2023/06/23 01:33:27;;;;;;;4.80;4.30;;;25.30;99.90;;;;;;5066745;28;20461;-58
2023/06/23 01:36:03;;;;;;;4.77;4.40;;;25.30;99.90;;;;;;5069525;28;20470;-58
2023/06/23 01:38:35;;;;;;;4.83;4.43;;;25.30;99.90;;;;;;5066604;28;20502;-58
2023/06/23 01:41:07;;;;;;;4.60;3.77;;;25.40;99.90;;;;;;5066191;28;20556;-59
2023/06/23 01:43:37;;;;;;;4.70;4.30;;;25.30;99.90;;;;;;5067575;28;20472;-59
2023/06/23 01:46:11;;;;;;;3.40;3.20;;;25.30;99.90;;;;;;5065059;28;20545;-59
2023/06/23 01:48:42;;;;;;;4.80;4.40;;;25.30;99.90;;;;;;5066718;28;20464;-58
2023/06/23 01:51:10;;;;;;;4.57;3.60;;;25.30;99.90;;;;;;5060281;28;20867;-59
2023/06/23 01:53:38;;;;;;;4.73;4.43;;;25.30;99.90;;;;;;5063393;28;20460;-58
2023/06/23 01:56:08;;;;;;;4.50;4.10;;;25.30;99.90;;;;;;5063953;28;20464;-58
2023/06/23 01:58:38;;;;;;;5.07;4.57;;;25.30;99.90;;;;;;5066045;28;21092;-59
2023/06/23 02:01:08;;;;;;;4.13;3.73;;;25.30;99.90;;;;;;5063827;28;20867;-59
2023/06/23 02:03:36;;;;;;;5.50;5.00;;;25.30;99.90;;;;;;5063255;28;20461;-59
2023/06/23 02:06:04;;;;;;;4.27;3.97;;;25.30;99.90;;;;;;5064982;28;20452;-59
2023/06/23 02:08:34;;;;;;;6.00;3.83;;;25.30;99.90;;;;;;5064458;28;20457;-59
2023/06/23 02:11:02;;;;;;;4.40;4.10;;;25.30;99.90;;;;;;5063858;28;20474;-58
2023/06/23 02:13:30;;;;;;;4.10;3.80;;;25.30;99.90;;;;;;5062767;28;20458;-58
2023/06/23 02:15:58;;;;;;;4.37;4.07;;;25.30;99.90;;;;;;5062068;28;20468;-58
2023/06/23 02:18:28;;;;;;;3.90;3.60;;;25.30;99.90;;;;;;5061552;28;20485;-59
2023/06/23 02:20:56;;;;;;;4.50;4.20;;;25.30;99.90;;;;;;5063195;28;20449;-59
2023/06/23 02:23:24;;;;;;;4.50;4.13;;;25.30;99.90;;;;;;5063979;28;20487;-59
2023/06/23 02:25:51;;;;;;;4.30;4.00;;;25.30;99.90;;;;;;5062853;28;20468;-57
2023/06/23 02:28:19;;;;;;;4.67;4.27;;;25.30;99.90;;;;;;5062452;28;20489;-59
2023/06/23 02:30:48;;;;;;;4.23;3.90;;;25.30;99.90;;;;;;5062839;28;20518;-59
2023/06/23 02:33:14;;;;;;;4.67;4.37;;;25.30;99.90;;;;;;5073560;28;20449;-59
2023/06/23 02:35:42;;;;;;;5.10;4.70;;;25.30;99.90;;;;;;5072126;28;20811;-59
2023/06/23 02:38:12;;;;;;;4.30;3.90;;;25.30;99.90;;;;;;5065981;28;20476;-58
2023/06/23 02:40:42;;;;;;;5.33;4.93;;;25.30;99.90;;;;;;5068179;28;20448;-59
2023/06/23 02:43:16;;;;;;;4.00;3.60;;;25.30;99.90;;;;;;5068303;28;20926;-59
2023/06/23 02:45:47;;;;;;;4.40;4.10;;;25.30;99.90;;;;;;5063613;28;20827;-59
2023/06/23 02:48:18;;;;;;;4.43;4.03;;;25.30;99.90;;;;;;5068487;28;20466;-58
2023/06/23 02:50:49;;;;;;;3.77;3.47;;;25.30;99.90;;;;;;5069213;28;20467;-59
2023/06/23 02:53:21;;;;;;;4.00;3.70;;;25.30;99.90;;;;;;5072251;28;20456;-59
2023/06/23 02:55:50;;;;;;;3.67;3.37;;;25.30;99.90;;;;;;5068336;28;20788;-59
2023/06/23 02:58:19;;;;;;;4.87;4.37;;;25.30;99.90;;;;;;5066258;28;20488;-59
2023/06/23 03:00:46;;;;;;;4.20;3.90;;;25.30;99.90;;;;;;5067307;28;20818;-60
2023/06/23 03:03:15;;;;;;;3.50;3.20;;;25.30;99.90;;;;;;5070910;28;20463;-56
2023/06/23 03:05:43;;;;;;;3.87;3.57;;;25.30;99.90;;;;;;5070112;28;20510;-59
2023/06/23 03:08:11;;;;;;;4.20;3.90;;;25.20;99.90;;;;;;5070146;28;20478;-59
2023/06/23 03:10:38;;;;;;;4.40;4.10;;;25.30;99.90;;;;;;5069735;28;20960;-59
2023/06/23 03:13:05;;;;;;;3.83;3.53;;;25.30;99.90;;;;;;5065227;28;20858;-59
2023/06/23 03:15:32;;;;;;;4.20;3.90;;;25.30;99.90;;;;;;5062502;28;20661;-59
2023/06/23 03:18:01;;;;;;;3.80;3.50;;;25.30;99.90;;;;;;5062577;28;21094;-58
2023/06/23 03:20:34;;;;;;;4.07;3.77;;;25.30;99.90;;;;;;5062590;28;21109;-60
2023/06/23 03:23:05;;;;;;;4.40;4.00;;;25.20;99.90;;;;;;5063784;28;20458;-59
2023/06/23 03:25:33;;;;;;;4.27;3.97;;;25.20;99.90;;;;;;5063642;28;20468;-58
2023/06/23 03:28:02;;;;;;;3.70;3.40;;;25.20;99.90;;;;;;5061690;28;20480;-59
2023/06/23 03:30:35;;;;;;;4.20;3.90;;;25.20;99.90;;;;;;5062783;28;20523;-60
2023/06/23 03:33:09;;;;;;;4.27;3.97;;;25.30;99.90;;;;;;5069722;28;20468;-57
2023/06/23 03:35:41;;;;;;;4.03;3.73;;;25.30;99.90;;;;;;5063447;28;20460;-57
2023/06/23 03:38:11;;;;;;;3.97;3.67;;;25.30;99.90;;;;;;5069585;28;20845;-60
2023/06/23 03:40:44;;;;;;;4.30;4.00;;;25.30;99.90;;;;;;5069682;28;21626;-59
2023/06/23 03:43:17;;;;;;;4.50;4.10;;;25.30;99.90;;;;;;5072222;28;20461;-59
2023/06/23 03:45:49;;;;;;;4.00;3.70;;;25.30;99.90;;;;;;5068272;28;20464;-59
2023/06/23 03:48:18;;;;;;;3.87;3.57;;;25.20;99.90;;;;;;5063978;28;20461;-59
2023/06/23 03:50:47;;;;;;;3.80;3.57;;;25.20;99.90;;;;;;5061515;28;20456;-59
2023/06/23 03:53:15;;;;;;;3.90;3.60;;;25.20;99.90;;;;;;5063465;28;20494;-59
2023/06/23 03:55:44;;;;;;;4.13;3.83;;;25.20;99.90;;;;;;5060582;28;20518;-60
2023/06/23 03:58:12;;;;;;;4.20;3.80;;;25.20;99.90;;;;;;5059715;28;20856;-60
2023/06/23 04:00:41;;;;;;;4.20;3.90;;;25.20;99.90;;;;;;5059974;28;20468;-59
2023/06/23 04:03:09;;;;;;;4.33;4.03;;;25.20;99.90;;;;;;5061050;28;20472;-59
2023/06/23 04:05:39;;;;;;;4.07;3.77;;;25.20;99.90;;;;;;5062583;28;20463;-59
2023/06/23 04:08:07;;;;;;;4.07;3.77;;;25.20;99.90;;;;;;5062209;28;20489;-58
2023/06/23 04:10:35;;;;;;;4.70;4.30;;;25.20;99.90;;;;;;5060229;28;20460;-59
2023/06/23 04:13:04;;;;;;;3.90;3.60;;;25.20;99.90;;;;;;5062731;28;20456;-59
2023/06/23 04:15:33;;;;;;;4.47;4.17;;;25.20;99.90;;;;;;5061111;28;20964;-59
2023/06/23 04:18:00;;;;;;;4.80;3.40;;;25.20;99.90;;;;;;5064717;28;21038;-59
2023/06/23 04:20:29;;;;;;;4.00;3.70;;;25.20;99.90;;;;;;5062703;28;21077;-60
2023/06/23 04:22:57;;;;;;;4.37;4.00;;;25.20;99.90;;;;;;5071831;28;20514;-59
2023/06/23 04:25:26;;;;;;;3.43;3.23;;;25.20;99.90;;;;;;5061888;28;20997;-59
2023/06/23 04:27:56;;;;;;;3.90;3.60;;;25.20;99.90;;;;;;5062637;28;21060;-59
2023/06/23 04:30:27;;;;;;;3.90;3.57;;;25.20;99.90;;;;;;5069764;28;20854;-58
2023/06/23 04:32:54;;;;;;;3.50;3.27;;;25.20;99.90;;;;;;5075500;28;20455;-59
2023/06/23 04:35:21;;;;;;;3.90;3.60;;;25.20;99.90;;;;;;5071339;28;20464;-59
2023/06/23 04:37:53;;;;;;;4.33;4.03;;;25.10;99.90;;;;;;5067764;28;20565;-60
2023/06/23 04:40:26;;;;;;;4.33;4.03;;;25.20;99.90;;;;;;5069569;28;20461;-60
2023/06/23 04:42:56;;;;;;;3.83;3.53;;;25.10;99.90;;;;;;5069044;28;20459;-57
2023/06/23 04:45:27;;;;;;;3.60;3.30;;;25.20;99.90;;;;;;5072941;28;20844;-59
2023/06/23 04:47:57;;;;;;;4.30;4.00;;;25.20;99.90;;;;;;5070135;28;20468;-60
2023/06/23 04:50:28;;;;;;;3.60;3.30;;;25.10;99.90;;;;;;5067326;28;20867;-58
2023/06/23 04:53:02;;;;;;;3.93;3.63;;;25.20;99.90;;;;;;5065927;28;20441;-59
2023/06/23 04:55:32;;;;;;;3.70;3.40;;;25.20;99.90;;;;;;5071391;28;20460;-60
2023/06/23 04:58:00;;;;;;;3.07;2.87;;;25.20;99.90;;;;;;5071204;28;20483;-60
2023/06/23 05:00:30;;;;;;;3.57;3.27;;;25.20;99.90;;;;;;5069165;28;20464;-59
2023/06/23 05:02:58;;;;;;;3.63;3.37;;;25.10;99.90;;;;;;5071112;28;20458;-59
2023/06/23 05:05:28;;;;;;;3.80;3.40;;;25.10;99.90;;;;;;5076104;28;20460;-59
2023/06/23 05:07:56;;;;;;;4.10;3.70;;;25.20;99.90;;;;;;5068921;28;20506;-59
2023/06/23 05:10:26;;;;;;;3.10;2.90;;;25.20;99.90;;;;;;5069022;28;20459;-59
2023/06/23 05:12:55;;;;;;;3.20;2.90;;;25.10;99.90;;;;;;5069228;28;20824;-59
2023/06/23 05:15:23;;;;;;;3.80;3.50;;;25.20;99.90;;;;;;5063449;28;20460;-59
2023/06/23 05:17:56;;;;;;;4.10;3.80;;;25.20;99.90;;;;;;5068887;28;20776;-59
2023/06/23 05:20:24;;;;;;;3.27;3.07;;;25.10;99.90;;;;;;5068156;28;20472;-60
2023/06/23 05:22:52;;;;;;;3.70;3.40;;;25.10;99.90;;;;;;5066236;28;20467;-60
2023/06/23 05:25:23;;;;;;;3.23;3.00;;;25.10;99.90;;;;;;5071053;28;20553;-58
2023/06/23 05:27:57;;;;;;;3.07;2.87;;;25.10;99.90;;;;;;5070232;28;20461;-57
2023/06/23 05:30:25;;;;;;;3.43;3.20;;;25.10;99.90;;;;;;5068965;28;20457;-59
2023/06/23 05:32:55;;;;;;;3.70;3.40;;;25.10;99.90;;;;;;5072407;28;20506;-59
2023/06/23 05:35:23;;;;;;;3.90;3.57;;;25.10;99.90;;;;;;5069958;28;21748;-59
2023/06/23 05:37:51;;;;;;;3.70;3.40;;;25.10;99.90;;;;;;5071872;28;20561;-59
2023/06/23 05:40:18;;;;;;;3.43;3.23;;;25.10;99.90;;;;;;5067506;28;20464;-59
2023/06/23 05:42:45;;;;;;;4.27;3.93;;;25.10;99.90;;;;;;5071393;28;20994;-60
2023/06/23 05:45:13;;;;;;;3.17;2.97;;;25.10;99.90;;;;;;5067529;28;20483;-59
2023/06/23 05:47:43;;;;;;;3.83;3.53;;;25.10;99.90;;;;;;5072486;28;20468;-59
2023/06/23 05:50:22;;;;;;;4.10;3.10;;;25.10;99.90;;;;;;5065711;28;20559;-59
2023/06/23 05:52:57;;;;;;;3.70;3.40;;;25.10;99.90;;;;;;5067224;28;20449;-59
2023/06/23 05:55:27;;;;;;;3.60;3.30;;;25.10;99.90;;;;;;5069610;28;20457;-59
2023/06/23 05:57:59;;;;;;;3.53;3.23;;;25.10;99.90;;;;;;5065533;28;20476;-59
2023/06/23 06:00:30;;;;;;;4.37;3.97;;;25.10;99.90;;;;;;5064014;28;21339;-58
2023/06/23 06:02:59;;;;;;;3.70;3.40;;;25.10;99.90;;;;;;5068855;28;20479;-58
2023/06/23 06:05:29;;;;;;;4.07;3.70;;;25.10;99.90;;;;;;5063638;28;20455;-57
2023/06/23 06:07:58;;;;;;;4.20;3.80;;;25.10;99.90;;;;;;5070152;28;20543;-58
2023/06/23 06:10:27;;;;;;;3.50;3.20;;;25.10;99.90;;;;;;5067110;28;20468;-57
2023/06/23 06:12:55;;;;;;;3.50;3.20;;;25.10;99.90;;;;;;5071064;28;20452;-59
2023/06/23 06:15:22;;;;;;;3.50;3.30;;;25.10;99.90;;;;;;5065821;28;20606;-58
2023/06/23 06:17:51;;;;;;;3.87;3.47;;;25.10;99.90;;;;;;5069459;28;20841;-57
2023/06/23 06:20:20;;;;;;;3.13;2.93;;;25.10;99.90;;;;;;5066411;28;20464;-59
2023/06/23 06:22:50;;;;;;;3.67;3.37;;;25.10;99.90;;;;;;5065225;28;20465;-58
2023/06/23 06:25:16;;;;;;;3.70;3.40;;;25.10;99.90;;;;;;5067752;28;20477;-58
2023/06/23 06:27:44;;;;;;;3.50;3.20;;;25.10;99.90;;;;;;5069649;28;20464;-58
2023/06/23 06:30:13;;;;;;;7.33;4.17;;;25.10;99.90;;;;;;5067632;28;20554;-59
2023/06/23 06:32:43;;;;;;;6.30;5.70;;;25.10;99.90;;;;;;5070848;28;20509;-57
2023/06/23 06:35:12;;;;;;;10.80;6.57;;;25.00;99.90;;;;;;5064110;28;20483;-56
2023/06/23 06:37:41;;;;;;;8.30;5.07;;;25.00;99.90;;;;;;5066353;28;20450;-59
2023/06/23 06:40:12;;;;;;;6.70;6.10;;;25.00;99.90;;;;;;5071347;28;20887;-59
2023/06/23 06:42:39;;;;;;;10.93;5.87;;;24.90;99.90;;;;;;5071399;28;20962;-58
2023/06/23 06:45:06;;;;;;;8.10;4.90;;;24.90;99.90;;;;;;5067000;28;20469;-59
2023/06/23 06:47:40;;;;;;;6.30;5.17;;;24.90;99.90;;;;;;5070283;28;20920;-60
2023/06/23 06:50:09;;;;;;;10.30;5.30;;;24.90;99.90;;;;;;5070720;28;20453;-59
2023/06/23 06:52:37;;;;;;;5.87;5.07;;;24.80;99.90;;;;;;5073172;28;20464;-59
2023/06/23 06:55:05;;;;;;;6.20;5.37;;;24.80;99.90;;;;;;5069589;28;20544;-59
2023/06/23 06:57:35;;;;;;;8.40;5.63;;;24.80;99.90;;;;;;5064320;28;20463;-59
2023/06/23 07:00:03;;;;;;;8.43;5.53;;;24.80;99.90;;;;;;5066145;28;20810;-60
2023/06/23 07:02:31;;;;;;;6.37;5.77;;;24.80;99.90;;;;;;5066460;28;20472;-59
2023/06/23 07:04:59;;;;;;;5.90;5.20;;;24.80;99.90;;;;;;5062528;28;20461;-60
2023/06/23 07:07:26;;;;;;;7.70;6.03;;;24.80;99.90;;;;;;5068607;28;20452;-59
2023/06/23 07:09:52;;;;;;;7.30;4.60;;;24.80;99.90;;;;;;5065005;28;20471;-59
2023/06/23 07:12:19;;;;;;;4.93;4.53;;;24.80;99.90;;;;;;5067598;28;20464;-59
2023/06/23 07:14:47;;;;;;;7.97;4.77;;;24.70;99.90;;;;;;5063825;28;20491;-60
2023/06/23 07:17:14;;;;;;;11.00;4.83;;;24.80;99.90;;;;;;5055264;28;20469;-59
2023/06/23 07:19:40;;;;;;;6.20;4.97;;;24.80;99.90;;;;;;5061464;28;20834;-59
2023/06/23 07:22:07;;;;;;;6.00;5.40;;;24.80;99.90;;;;;;5066208;28;20776;-59
2023/06/23 07:24:34;;;;;;;11.90;5.00;;;24.70;99.90;;;;;;5062503;28;20472;-59
2023/06/23 07:27:00;;;;;;;6.43;5.33;;;24.70;99.90;;;;;;5069149;28;20853;-57
2023/06/23 07:29:27;;;;;;;8.83;5.47;;;24.80;99.90;;;;;;5063525;28;20475;-59
2023/06/23 07:31:55;;;;;;;5.70;5.20;;;24.70;99.90;;;;;;5066428;28;20873;-59
2023/06/23 07:34:22;;;;;;;6.83;4.27;;;24.70;99.90;;;;;;5063455;28;20468;-59
2023/06/23 07:36:48;;;;;;;6.83;5.30;;;24.70;99.90;;;;;;5064785;28;20468;-59
2023/06/23 07:39:15;;;;;;;5.67;4.87;;;24.70;99.90;;;;;;5063601;28;21837;-59
2023/06/23 07:41:42;;;;;;;10.40;5.23;;;24.70;99.90;;;;;;5054647;28;20954;-60
2023/06/23 07:44:08;;;;;;;4.40;4.00;;;24.70;99.90;;;;;;5058228;28;20855;-59
2023/06/23 07:46:35;;;;;;;4.63;4.23;;;24.70;99.90;;;;;;5052759;28;20558;-60
2023/06/23 07:49:03;;;;;;;7.40;4.60;;;24.60;99.90;;;;;;5054217;28;20475;-59
2023/06/23 07:51:30;;;;;;;4.30;3.90;;;24.70;99.90;;;;;;5061385;28;20456;-60
2023/06/23 07:53:57;;;;;;;5.23;4.10;;;24.70;99.90;;;;;;5056701;28;20461;-59
2023/06/23 07:56:24;;;;;;;6.63;4.10;;;24.60;99.90;;;;;;5055630;28;20457;-59
2023/06/23 07:58:50;;;;;;;6.67;4.50;;;24.60;99.90;;;;;;5064559;28;20506;-58
2023/06/23 08:01:17;;;;;;;8.80;4.77;;;24.70;99.90;;;;;;5055829;28;20467;-60
2023/06/23 08:03:46;;;;;;;8.10;4.40;;;24.60;99.90;;;;;;5052711;28;21196;-59
2023/06/23 08:06:14;;;;;;;6.57;3.87;;;24.70;99.90;;;;;;5056459;28;20460;-60
2023/06/23 08:08:41;;;;;;;5.37;3.77;;;24.70;99.90;;;;;;5055761;28;20464;-59
2023/06/23 08:11:08;;;;;;;4.00;3.60;;;24.60;99.90;;;;;;5059661;28;20519;-59
2023/06/23 08:13:38;;;;;;;4.23;3.73;;;24.60;99.90;;;;;;5057792;28;20453;-58
2023/06/23 08:16:05;;;;;;;6.20;3.80;;;24.70;99.90;;;;;;5060535;28;20852;-59
2023/06/23 08:18:32;;;;;;;8.23;4.13;;;24.60;99.90;;;;;;5059708;28;20485;-58
2023/06/23 08:20:58;;;;;;;5.97;3.87;;;24.70;99.90;;;;;;5060177;28;20468;-57
2023/06/23 08:23:27;;;;;;;3.60;3.30;;;24.60;99.90;;;;;;5059248;28;20483;-59
2023/06/23 08:25:53;;;;;;;3.30;2.97;;;24.70;99.90;;;;;;5056547;28;20583;-58
2023/06/23 08:28:20;;;;;;;4.80;4.40;;;24.70;99.90;;;;;;5059489;28;20453;-58
2023/06/23 08:30:47;;;;;;;6.90;3.90;;;24.70;99.90;;;;;;5061039;28;20465;-58
2023/06/23 08:33:13;;;;;;;5.80;4.07;;;24.70;99.90;;;;;;5061930;28;20468;-58
2023/06/23 08:35:40;;;;;;;5.70;3.53;;;24.60;99.90;;;;;;5057840;28;20653;-57
2023/06/23 08:38:07;;;;;;;8.30;3.80;;;24.70;99.90;;;;;;5060457;28;20460;-57
2023/06/23 08:40:35;;;;;;;7.70;3.77;;;24.60;99.90;;;;;;5059224;28;20458;-58
2023/06/23 08:43:02;;;;;;;8.60;3.37;;;24.60;99.90;;;;;;5057505;28;20457;-59
2023/06/23 08:45:31;;;;;;;4.47;3.67;;;24.60;99.90;;;;;;5058770;28;20468;-57
2023/06/23 08:48:01;;;;;;;3.90;3.50;;;24.60;99.90;;;;;;5062790;28;20460;-58
2023/06/23 08:50:29;;;;;;;3.87;3.57;;;24.60;99.60;;;;;;5066885;28;20457;-58
2023/06/23 08:52:59;;;;;;;4.90;3.33;;;24.60;99.60;;;;;;5063704;28;20459;-57
2023/06/23 08:55:25;;;;;;;3.43;3.13;;;24.60;99.70;;;;;;5069154;28;20962;-58
2023/06/23 08:57:56;;;;;;;3.60;3.30;;;24.60;99.60;;;;;;5071075;28;20461;-59
2023/06/23 09:00:23;;;;;;;5.57;3.73;;;24.60;99.50;;;;;;5067505;28;20513;-58
2023/06/23 09:02:50;;;;;;;4.63;3.30;;;24.60;99.40;;;;;;5066087;28;20530;-58
2023/06/23 09:05:17;;;;;;;6.23;3.20;;;24.60;99.30;;;;;;5062744;28;20490;-58
2023/06/23 09:07:44;;;;;;;4.70;3.47;;;24.60;99.20;;;;;;5062935;28;20799;-59
2023/06/23 09:10:12;;;;;;;5.77;3.23;;;24.60;99.00;;;;;;5067165;28;20997;-59
2023/06/23 09:12:51;;;;;;;4.50;3.50;;;24.60;99.00;;;;;;5065104;28;20468;-59
2023/06/23 09:15:20;;;;;;;4.03;3.10;;;24.60;99.00;;;;;;5065948;28;20491;-58
2023/06/23 09:17:48;;;;;;;6.07;3.80;;;24.60;98.90;;;;;;5065806;28;20460;-59
2023/06/23 09:20:16;;;;;;;4.43;3.13;;;24.60;99.00;;;;;;5067112;28;20571;-57
2023/06/23 09:22:45;;;;;;;6.30;3.37;;;24.60;98.90;;;;;;5068016;28;20475;-59
2023/06/23 09:25:38;;;;;;;3.30;2.83;;;24.60;98.80;;;;;;5068731;28;20553;-59
2023/06/23 09:28:05;;;;;;;4.20;3.40;;;24.60;98.80;;;;;;5068010;28;20543;-59
2023/06/23 09:30:36;;;;;;;4.10;3.33;;;24.60;98.80;;;;;;5070370;28;21270;-54
2023/06/23 09:33:05;;;;;;;3.67;2.80;;;24.60;98.70;;;;;;5067418;28;20460;-61
2023/06/23 09:35:32;;;;;;;4.10;3.27;;;24.60;98.40;;;;;;5070662;28;20592;-60
2023/06/23 09:37:59;;;;;;;4.07;3.63;;;24.60;98.10;;;;;;5067141;28;20449;-56
2023/06/23 09:40:26;;;;;;;3.60;3.20;;;24.60;97.60;;;;;;5066797;28;20480;-55
2023/06/23 09:42:57;;;;;;;5.30;3.20;;;24.60;97.30;;;;;;5065408;28;20617;-56
2023/06/23 09:45:24;;;;;;;4.10;2.90;;;24.60;97.10;;;;;;5064578;28;20467;-52
2023/06/23 09:47:52;;;;;;;3.80;3.00;;;24.60;97.00;;;;;;5064228;28;20844;-57
2023/06/23 09:50:22;;;;;;;11.43;4.17;;;24.60;97.10;;;;;;5067759;28;20460;-50
2023/06/23 09:53:01;;;;;;;4.10;2.73;;;24.60;97.10;;;;;;5068279;28;21080;-61
2023/06/23 09:55:30;;;;;;;7.00;3.40;;;24.60;97.30;;;;;;5069687;28;20493;-53
2023/06/23 09:57:57;;;;;;;3.33;3.03;;;24.70;97.40;;;;;;5065592;28;20528;-56
2023/06/23 10:00:30;;;;;;;4.03;3.30;;;24.70;97.50;;;;;;5065567;28;20879;-57
2023/06/23 10:03:00;;;;;;;3.27;2.97;;;24.70;97.30;;;;;;5065764;28;20584;-54
2023/06/23 10:05:33;;;;;;;3.53;3.23;;;24.70;97.30;;;;;;5063534;28;21023;-58
2023/06/23 10:08:08;;;;;;;3.93;3.53;;;24.70;97.30;;;;;;5067841;28;20449;-55
2023/06/23 10:10:40;;;;;;;4.90;3.50;;;24.80;97.10;;;;;;5066320;28;20545;-52
2023/06/23 10:13:07;;;;;;;3.57;3.27;;;24.80;96.50;;;;;;5067012;28;20496;-60
2023/06/23 10:15:33;;;;;;;3.50;3.03;;;24.80;96.60;;;;;;5065882;28;20468;-54
2023/06/23 10:18:02;;;;;;;5.00;3.47;;;24.80;96.20;;;;;;5064431;28;20470;-53
2023/06/23 10:20:29;;;;;;;3.77;3.10;;;24.90;96.10;;;;;;5063576;28;20480;-61
2023/06/23 10:22:57;;;;;;;3.17;2.97;;;24.90;96.10;;;;;;5064899;28;20465;-55
2023/06/23 10:25:25;;;;;;;3.13;2.83;;;24.90;96.10;;;;;;5066631;28;20473;-61
2023/06/23 10:27:55;;;;;;;3.57;3.27;;;24.90;95.90;;;;;;5065453;28;20522;-58
2023/06/23 10:30:23;;;;;;;2.80;2.60;;;24.90;95.70;;;;;;5062458;28;21161;-56
2023/06/23 10:32:55;;;;;;;6.67;3.97;;;25.00;95.70;;;;;;5066903;28;20464;-61
2023/06/23 10:35:24;;;;;;;3.30;2.93;;;25.00;95.70;;;;;;5065618;28;20550;-60
2023/06/23 10:37:59;;;;;;;5.63;3.20;;;25.00;95.80;;;;;;5066293;28;20833;-52
2023/06/23 10:40:27;;;;;;;6.67;3.43;;;25.10;96.00;;;;;;5060450;28;20489;-58
2023/06/23 10:42:59;;;;;;;4.10;3.40;;;25.10;96.60;;;;;;5069169;28;20457;-61
2023/06/23 10:45:26;;;;;;;6.57;3.37;;;25.10;97.00;;;;;;5061970;28;21095;-58
2023/06/23 10:47:53;;;;;;;4.80;3.37;;;25.10;97.40;;;;;;5070112;28;20464;-54
2023/06/23 10:50:20;;;;;;;6.70;3.13;;;25.20;97.00;;;;;;5066773;28;20452;-59
2023/06/23 10:52:48;;;;;;;6.13;4.20;;;25.30;96.70;;;;;;5057568;28;20460;-55
2023/06/23 10:55:34;;;;;;;4.20;3.80;;;25.30;96.80;;;;;;5063246;28;20465;-57
2023/06/23 10:58:12;;;;;;;4.20;3.77;;;25.30;96.40;;;;;;5068303;28;21361;-58
2023/06/23 11:00:40;;;;;;;7.00;3.43;;;25.30;97.30;;;;;;5069596;28;20532;-57
2023/06/23 11:03:09;;;;;;;18.30;5.00;;;25.30;97.00;;;;;;5064217;28;20475;-57
2023/06/23 11:05:41;;;;;;;3.93;3.23;;;25.30;96.70;;;;;;5063982;28;20896;-58
2023/06/23 11:08:13;;;;;;;3.93;3.43;;;25.40;96.60;;;;;;5065502;28;20951;-57
2023/06/23 11:10:50;;;;;;;5.40;3.60;;;25.40;96.80;;;;;;5060556;28;20463;-56
2023/06/23 11:13:17;;;;;;;4.07;3.67;;;25.40;96.40;;;;;;5071060;28;20459;-56
2023/06/23 11:15:53;;;;;;;4.57;3.60;;;25.40;96.20;;;;;;5061352;28;20482;-56
2023/06/23 11:18:22;;;;;;;3.97;3.10;;;25.50;96.00;;;;;;5070613;28;20542;-57
2023/06/23 11:20:49;;;;;;;5.00;3.33;;;25.50;96.40;;;;;;5064921;28;20482;-54
2023/06/23 11:23:17;;;;;;;3.77;3.30;;;25.50;96.20;;;;;;5069878;28;20995;-58
2023/06/23 11:25:46;;;;;;;4.37;3.60;;;25.50;96.30;;;;;;5062293;28;20472;-59
2023/06/23 11:28:33;;;;;;;7.13;3.53;;;25.50;95.90;;;;;;5062972;28;20824;-57
2023/06/23 11:31:08;;;;;;;4.50;4.10;;;25.60;95.90;;;;;;5066189;28;21029;-57
2023/06/23 11:33:37;;;;;;;3.47;3.17;;;25.60;96.00;;;;;;5066339;28;20555;-55
2023/06/23 11:36:06;;;;;;;6.43;3.30;;;25.60;95.90;;;;;;5066822;28;20578;-57
2023/06/23 11:38:35;;;;;;;5.63;3.30;;;25.60;96.00;;;;;;5070008;28;20458;-56
2023/06/23 11:41:03;;;;;;;4.20;3.60;;;25.60;95.80;;;;;;5064029;28;20486;-56
2023/06/23 11:43:34;;;;;;;5.20;3.37;;;25.60;95.60;;;;;;5064511;28;20459;-56
2023/06/23 11:46:09;;;;;;;9.93;4.23;;;25.70;95.40;;;;;;5061371;28;20556;-57
2023/06/23 11:48:37;;;;;;;3.57;3.27;;;25.60;95.50;;;;;;5066784;28;20450;-56
2023/06/23 11:51:04;;;;;;;3.10;2.80;;;25.70;95.60;;;;;;5066385;28;20460;-55
2023/06/23 11:53:31;;;;;;;3.97;3.57;;;25.70;95.40;;;;;;5061605;28;21006;-56
2023/06/23 11:56:00;;;;;;;6.10;4.27;;;25.70;95.50;;;;;;5059909;28;21028;-57
2023/06/23 11:58:30;;;;;;;5.37;3.60;;;25.70;95.40;;;;;;5052623;28;20582;-56
2023/06/23 12:00:57;;;;;;;5.80;3.80;;;25.70;94.90;;;;;;5062671;28;20582;-56
2023/06/23 12:03:24;;;;;;;3.27;2.97;;;25.70;95.00;;;;;;5066509;28;20461;-56
2023/06/23 12:05:51;;;;;;;4.07;3.20;;;25.70;94.90;;;;;;5059798;28;20477;-56
2023/06/23 12:08:18;;;;;;;4.83;3.50;;;25.80;94.90;;;;;;5062949;28;20457;-57
2023/06/23 12:10:47;;;;;;;5.53;3.60;;;25.70;94.50;;;;;;5059365;28;20469;-57
2023/06/23 12:13:16;;;;;;;6.97;4.03;;;25.70;94.30;;;;;;5058107;28;21718;-56
2023/06/23 12:15:45;;;;;;;6.27;3.63;;;25.70;94.40;;;;;;5059777;28;20458;-56
2023/06/23 12:18:12;;;;;;;4.30;3.60;;;25.70;94.30;;;;;;5062574;28;20466;-56
2023/06/23 12:20:41;;;;;;;4.17;3.60;;;25.80;94.50;;;;;;5061037;28;20767;-56
2023/06/23 12:23:10;;;;;;;3.63;3.33;;;25.70;93.80;;;;;;5057008;28;20466;-56
2023/06/23 12:25:39;;;;;;;3.90;2.93;;;25.80;93.80;;;;;;5055742;28;21002;-57
2023/06/23 12:28:11;;;;;;;4.07;3.30;;;25.80;93.60;;;;;;5057572;28;20471;-54
2023/06/23 12:30:41;;;;;;;5.17;3.63;;;25.80;93.30;;;;;;5055617;28;20491;-56
2023/06/23 12:33:16;;;;;;;4.67;3.80;;;25.70;92.40;;;;;;5057710;28;20463;-55
2023/06/23 12:35:55;;;;;;;3.63;2.90;;;25.70;92.20;;;;;;5058319;28;20716;-56
2023/06/23 12:38:23;;;;;;;7.43;3.63;;;25.70;92.40;;;;;;5059152;28;20470;-56
2023/06/23 12:40:50;;;;;;;2.80;2.43;;;25.70;92.30;;;;;;5062356;28;20490;-57
2023/06/23 12:43:18;;;;;;;3.33;2.60;;;25.70;92.40;;;;;;5057706;28;20459;-56
2023/06/23 12:45:48;;;;;;;3.93;3.60;;;25.70;92.20;;;;;;5054518;28;20505;-57
2023/06/23 12:48:14;;;;;;;3.73;3.00;;;25.70;92.20;;;;;;5062879;28;20857;-56
2023/06/23 12:50:42;;;;;;;8.70;3.47;;;25.70;92.20;;;;;;5061368;28;20555;-57
2023/06/23 12:53:08;;;;;;;3.87;3.57;;;25.70;92.40;;;;;;5065120;28;21043;-55
2023/06/23 12:55:35;;;;;;;3.63;3.23;;;25.70;92.30;;;;;;5061116;28;20473;-56